Time;durP1;ratioP1;P1;durP2;ratioP2;P2;SDS_P1;SDS_P2;PMS_P1;PMS_P2;Temp;Humidity;BMP_temperature;BMP_pressure;BME280_temperature;BME280_humidity;BME280_pressure;Samples;Min_cycle;Max_cycle;Signal;HPM_P1;HPM_P2
2023/09/25 00:01:51;;;;;;;4.57;2.80;;;;;;;14.85;72.59;102044.81;5096067;28;20024;-62
2023/09/25 00:04:17;;;;;;;4.15;2.70;;;;;;;14.81;72.95;102040.34;5095916;28;20389;-62
2023/09/25 00:06:42;;;;;;;6.25;2.80;;;;;;;14.72;73.15;102039.34;5095941;28;20028;-62
2023/09/25 00:09:08;;;;;;;3.60;2.75;;;;;;;14.59;73.79;102045.38;5096100;28;20032;-61
2023/09/25 00:11:33;;;;;;;5.65;2.70;;;;;;;14.52;73.70;102046.19;5094572;28;20032;-60
2023/09/25 00:13:59;;;;;;;5.68;2.78;;;;;;;14.46;73.82;102046.94;5095789;28;20027;-62
2023/09/25 00:16:25;;;;;;;4.72;2.65;;;;;;;14.50;73.96;102047.91;5095792;28;20063;-62
2023/09/25 00:18:51;;;;;;;5.20;2.60;;;;;;;14.56;73.79;102044.44;5095529;28;20024;-61
2023/09/25 00:21:16;;;;;;;4.82;2.90;;;;;;;14.53;73.50;102045.31;5095917;28;20484;-60
2023/09/25 00:23:42;;;;;;;4.57;2.65;;;;;;;14.49;73.70;102047.03;5095670;28;20407;-60
2023/09/25 00:26:07;;;;;;;4.93;2.70;;;;;;;14.48;73.84;102049.66;5095476;28;20055;-61
2023/09/25 00:28:33;;;;;;;6.05;2.70;;;;;;;14.41;74.18;102048.66;5095039;28;20119;-61
2023/09/25 00:30:59;;;;;;;6.30;2.80;;;;;;;14.34;74.32;102052.09;5095613;28;20405;-61
2023/09/25 00:33:25;;;;;;;6.32;2.80;;;;;;;14.43;73.92;102049.59;5094276;28;20458;-61
2023/09/25 00:35:53;;;;;;;7.05;2.78;;;;;;;14.33;74.46;102046.75;5095644;28;20028;-61
2023/09/25 00:38:19;;;;;;;4.90;2.75;;;;;;;14.25;74.23;102049.28;5095242;28;20031;-61
2023/09/25 00:40:44;;;;;;;6.60;2.70;;;;;;;14.33;75.27;102046.75;5095307;28;20028;-59
2023/09/25 00:43:13;;;;;;;5.00;2.90;;;;;;;14.41;74.17;102047.75;5095472;28;20520;-60
2023/09/25 00:45:40;;;;;;;5.07;2.70;;;;;;;14.48;74.42;102049.66;5095421;28;20024;-60
2023/09/25 00:48:12;;;;;;;6.32;2.95;;;;;;;14.40;73.46;102051.31;5095124;28;20150;-61
2023/09/25 00:50:38;;;;;;;4.43;2.65;;;;;;;14.31;73.73;102053.84;5095117;28;20445;-62
2023/09/25 00:53:09;;;;;;;5.97;2.80;;;;;;;14.32;74.04;102045.88;5093807;28;20032;-61
2023/09/25 00:55:35;;;;;;;4.85;2.72;;;;;;;14.34;74.10;102051.19;5095334;28;20028;-60
2023/09/25 00:58:00;;;;;;;4.85;2.72;;;;;;;14.33;73.51;102050.31;5094963;28;20154;-62
2023/09/25 01:00:26;;;;;;;5.53;2.85;;;;;;;14.28;73.88;102050.25;5094712;28;20020;-61
2023/09/25 01:02:51;;;;;;;4.82;2.90;;;;;;;14.22;73.60;102043.97;5093903;28;20051;-61
2023/09/25 01:05:17;;;;;;;4.47;2.65;;;;;;;14.20;74.11;102048.34;5094789;28;20035;-61
2023/09/25 01:07:42;;;;;;;4.47;2.85;;;;;;;14.03;74.21;102048.06;5094778;28;20551;-61
2023/09/25 01:10:14;;;;;;;4.93;2.90;;;;;;;14.01;74.33;102050.72;5094735;28;20039;-61
2023/09/25 01:12:40;;;;;;;6.53;2.83;;;;;;;13.94;74.55;102055.91;5094714;28;20488;-60
2023/09/25 01:15:06;;;;;;;5.78;2.92;;;;;;;13.91;74.69;102056.75;5094885;28;20028;-61
2023/09/25 01:17:34;;;;;;;5.35;2.75;;;;;;;13.94;74.49;102055.91;5094478;28;20466;-62
2023/09/25 01:20:15;;;;;;;6.47;2.95;;;;;;;13.93;74.65;102059.44;5094535;28;20020;-62
2023/09/25 01:22:43;;;;;;;5.55;2.60;;;;;;;13.96;74.64;102054.16;5094894;28;20040;-61
2023/09/25 01:25:11;;;;;;;4.35;2.58;;;;;;;13.94;74.31;102059.47;5094624;28;20111;-62
2023/09/25 01:27:42;;;;;;;3.58;2.70;;;;;;;13.91;74.49;102047.88;5094685;28;20024;-63
2023/09/25 01:30:09;;;;;;;6.55;2.70;;;;;;;13.84;74.91;102046.00;5093977;28;20559;-60
2023/09/25 01:32:38;;;;;;;6.75;2.90;;;;;;;13.81;75.04;102045.94;5094593;28;20028;-61
2023/09/25 01:35:10;;;;;;;5.18;2.80;;;;;;;13.76;74.73;102043.22;5093171;28;20028;-61
2023/09/25 01:37:35;;;;;;;5.00;3.08;;;;;;;13.76;74.88;102048.53;5094528;28;20518;-61
2023/09/25 01:40:02;;;;;;;5.93;3.00;;;;;;;13.86;75.29;102044.25;5094448;28;20099;-61
2023/09/25 01:42:27;;;;;;;4.47;2.95;;;;;;;13.89;74.88;102044.31;5092805;28;20036;-60
2023/09/25 01:44:52;;;;;;;5.40;2.90;;;;;;;13.78;74.77;102041.47;5093967;28;20058;-63
2023/09/25 01:47:18;;;;;;;5.43;3.05;;;;;;;13.70;74.92;102043.09;5094084;28;20089;-61
2023/09/25 01:49:43;;;;;;;5.93;3.08;;;;;;;13.75;75.56;102041.44;5093927;28;20028;-62
2023/09/25 01:52:09;;;;;;;5.85;2.88;;;;;;;13.70;75.17;102048.41;5094037;28;20027;-61
2023/09/25 01:54:35;;;;;;;4.78;3.10;;;;;;;13.72;75.05;102047.59;5093901;28;20031;-62
2023/09/25 01:57:04;;;;;;;7.07;3.10;;;;;;;13.78;74.83;102042.34;5094029;28;20026;-61
2023/09/25 01:59:30;;;;;;;5.20;3.05;;;;;;;13.78;74.77;102046.78;5093668;28;20032;-61
2023/09/25 02:01:55;;;;;;;4.75;2.95;;;;;;;13.75;74.68;102049.41;5093783;28;20026;-61
2023/09/25 02:04:20;;;;;;;5.20;2.95;;;;;;;13.73;74.96;102044.06;5093938;28;20031;-61
2023/09/25 02:06:46;;;;;;;8.63;3.00;;;;;;;13.63;75.08;102039.47;5093928;28;20540;-62
2023/09/25 02:09:11;;;;;;;4.32;2.72;;;;;;;13.63;74.98;102042.13;5093733;28;20111;-62
2023/09/25 02:11:37;;;;;;;6.47;3.20;;;;;;;13.53;75.25;102040.13;5093616;28;20074;-62
2023/09/25 02:14:03;;;;;;;5.28;3.15;;;;;;;13.51;75.34;102037.47;5093653;28;20058;-60
2023/09/25 02:16:29;;;;;;;5.68;3.00;;;;;;;13.50;75.54;102046.31;5093573;28;20028;-62
2023/09/25 02:18:55;;;;;;;5.55;2.80;;;;;;;13.42;75.97;102034.66;5093501;28;20123;-62
2023/09/25 02:21:20;;;;;;;4.30;2.72;;;;;;;13.35;76.15;102032.75;5093775;28;20051;-60
2023/09/25 02:23:46;;;;;;;7.05;3.28;;;;;;;13.38;76.27;102027.50;5093383;28;20027;-63
2023/09/25 02:26:12;;;;;;;7.10;2.97;;;;;;;13.36;76.21;102031.91;5094046;28;20039;-61
2023/09/25 02:28:37;;;;;;;6.53;3.15;;;;;;;13.41;75.99;102030.22;5093177;28;20044;-61
2023/09/25 02:31:03;;;;;;;4.53;2.90;;;;;;;13.41;75.90;102029.34;5093507;28;20122;-62
2023/09/25 02:33:28;;;;;;;5.10;3.03;;;;;;;13.28;76.07;102036.19;5093085;28;20114;-61
2023/09/25 02:36:05;;;;;;;7.05;3.10;;;;;;;13.18;76.70;102031.50;5093274;28;20028;-60
2023/09/25 02:38:30;;;;;;;5.38;2.70;;;;;;;13.16;76.71;102035.91;5093481;28;20119;-60
2023/09/25 02:40:56;;;;;;;5.00;3.20;;;;;;;13.22;76.61;102036.94;5093237;28;20100;-62
2023/09/25 02:43:21;;;;;;;5.47;3.17;;;;;;;13.17;76.31;102025.31;5093446;28;20039;-62
2023/09/25 02:45:46;;;;;;;4.40;3.00;;;;;;;13.25;76.26;102034.34;5091879;28;20076;-61
2023/09/25 02:48:12;;;;;;;6.28;2.92;;;;;;;13.25;76.42;102042.31;5093111;28;20028;-60
2023/09/25 02:50:38;;;;;;;6.20;2.92;;;;;;;13.19;76.44;102036.88;5093099;28;20387;-60
2023/09/25 02:53:04;;;;;;;4.78;3.13;;;;;;;13.10;76.61;102041.97;5093334;28;20032;-60
2023/09/25 02:55:29;;;;;;;5.30;2.90;;;;;;;13.07;76.83;102027.78;5093084;28;20027;-60
2023/09/25 02:57:54;;;;;;;5.72;3.08;;;;;;;13.01;76.69;102032.06;5095466;28;20051;-60
2023/09/25 03:00:21;;;;;;;5.22;3.00;;;;;;;12.97;76.75;102022.25;5097318;28;20531;-59
2023/09/25 03:02:46;;;;;;;7.30;2.90;;;;;;;12.99;77.49;102025.84;5096041;28;20028;-61
2023/09/25 03:05:12;;;;;;;5.13;2.80;;;;;;;12.97;77.03;102024.91;5097119;28;20074;-61
2023/09/25 03:07:38;;;;;;;5.35;3.00;;;;;;;12.94;77.11;102030.19;5097372;28;20031;-61
2023/09/25 03:10:05;;;;;;;6.78;3.03;;;;;;;12.96;77.32;102028.44;5097090;28;20028;-60
2023/09/25 03:12:30;;;;;;;5.43;2.95;;;;;;;12.92;77.19;102036.31;5097278;28;20020;-61
2023/09/25 03:14:55;;;;;;;8.65;3.00;;;;;;;12.81;77.27;102033.44;5097034;28;20377;-60
2023/09/25 03:17:21;;;;;;;5.53;3.00;;;;;;;12.77;77.65;102031.59;5096832;28;20066;-60
2023/09/25 03:19:50;;;;;;;5.78;2.80;;;;;;;12.70;77.99;102030.56;5096853;28;20135;-60
2023/09/25 03:22:15;;;;;;;5.38;3.00;;;;;;;12.65;78.22;102031.34;5096822;28;20374;-60
2023/09/25 03:24:40;;;;;;;6.07;3.03;;;;;;;12.60;78.19;102025.94;5097012;28;20028;-61
2023/09/25 03:27:06;;;;;;;6.13;3.10;;;;;;;12.62;78.56;102031.25;5095499;28;20565;-60
2023/09/25 03:29:31;;;;;;;5.30;3.00;;;;;;;12.54;78.30;102031.09;5096309;28;20052;-60
2023/09/25 03:31:57;;;;;;;5.53;3.03;;;;;;;12.43;78.81;102025.56;5096524;28;20047;-62
2023/09/25 03:34:22;;;;;;;5.53;2.85;;;;;;;12.45;78.83;102030.88;5096571;28;20077;-61
2023/09/25 03:36:47;;;;;;;5.88;2.92;;;;;;;12.47;79.09;102030.06;5096614;28;20209;-61
2023/09/25 03:39:13;;;;;;;5.95;3.08;;;;;;;12.46;79.00;102023.00;5096467;28;20378;-62
2023/09/25 03:41:38;;;;;;;7.95;2.85;;;;;;;12.46;78.80;102036.25;5096501;28;20032;-61
2023/09/25 03:44:04;;;;;;;5.63;3.03;;;;;;;12.46;79.03;102033.59;5096440;28;20060;-60
2023/09/25 03:46:30;;;;;;;7.22;2.90;;;;;;;12.52;79.01;102036.38;5096635;28;20035;-61
2023/09/25 03:48:55;;;;;;;9.02;2.95;;;;;;;12.50;78.97;102032.81;5096489;28;20029;-61
2023/09/25 03:51:20;;;;;;;7.53;3.05;;;;;;;12.47;78.42;102024.78;5096415;28;20536;-62
2023/09/25 03:53:46;;;;;;;4.47;2.55;;;;;;;12.52;78.74;102027.53;5096527;28;20024;-62
2023/09/25 03:56:11;;;;;;;8.52;2.90;;;;;;;12.52;78.86;102035.47;5096187;28;20432;-61
2023/09/25 03:58:36;;;;;;;5.43;2.88;;;;;;;12.49;79.03;102035.41;5096271;28;20035;-61
2023/09/25 04:01:02;;;;;;;6.22;2.78;;;;;;;12.52;79.09;102035.47;5095905;28;20031;-62
2023/09/25 04:03:27;;;;;;;5.30;3.03;;;;;;;12.49;78.68;102036.28;5094656;28;20470;-61
2023/09/25 04:05:52;;;;;;;5.60;2.78;;;;;;;12.49;79.11;102043.34;5096024;28;20038;-62
2023/09/25 04:08:18;;;;;;;4.40;2.70;;;;;;;12.47;79.12;102037.13;5096201;28;20036;-61
2023/09/25 04:10:43;;;;;;;5.47;2.90;;;;;;;12.45;78.92;102046.78;5095848;28;20027;-60
2023/09/25 04:13:09;;;;;;;6.60;3.03;;;;;;;12.46;79.15;102040.63;5094795;28;20028;-62
2023/09/25 04:15:35;;;;;;;4.68;2.95;;;;;;;12.44;79.41;102053.84;5096073;28;20084;-61
2023/09/25 04:18:00;;;;;;;7.22;2.97;;;;;;;12.39;79.40;102041.38;5095644;28;20480;-60
2023/09/25 04:20:25;;;;;;;7.00;3.00;;;;;;;12.36;79.76;102042.19;5096064;28;20032;-62
2023/09/25 04:22:52;;;;;;;8.73;3.03;;;;;;;12.30;79.92;102049.13;5095966;28;20027;-60
2023/09/25 04:25:19;;;;;;;5.32;3.00;;;;;;;12.31;79.92;102050.91;5095789;28;20024;-62
2023/09/25 04:27:53;;;;;;;5.47;2.90;;;;;;;12.29;79.84;102045.56;5095615;28;20036;-61
2023/09/25 04:30:19;;;;;;;6.07;2.88;;;;;;;12.30;79.97;102051.78;5095329;28;20044;-61
2023/09/25 04:32:46;;;;;;;6.80;2.90;;;;;;;12.27;80.21;102053.47;5095413;28;20025;-60
2023/09/25 04:35:13;;;;;;;5.22;2.60;;;;;;;12.29;80.17;102045.56;5095315;28;20077;-60
2023/09/25 04:37:39;;;;;;;5.07;3.10;;;;;;;12.31;80.15;102053.56;5095549;28;20107;-61
2023/09/25 04:40:22;;;;;;;5.55;2.90;;;;;;;12.26;80.41;102053.44;5095378;28;20028;-61
2023/09/25 04:42:51;;;;;;;5.68;3.03;;;;;;;12.16;80.79;102060.28;5095330;28;20115;-60
2023/09/25 04:45:18;;;;;;;7.15;3.22;;;;;;;12.14;81.05;102061.09;5095299;28;20028;-60
2023/09/25 04:47:51;;;;;;;4.40;2.85;;;;;;;12.13;80.82;102059.31;5095428;28;20058;-60
2023/09/25 04:50:18;;;;;;;6.55;2.88;;;;;;;12.22;80.75;102060.44;5095372;28;20115;-61
2023/09/25 04:52:44;;;;;;;4.93;3.10;;;;;;;12.17;80.74;102056.78;5095116;28;20132;-60
2023/09/25 04:55:11;;;;;;;5.43;2.90;;;;;;;12.18;80.91;102070.91;5095107;28;20485;-62
2023/09/25 04:57:41;;;;;;;5.38;2.70;;;;;;;12.21;80.63;102063.94;5094890;28;20020;-61
2023/09/25 05:00:24;;;;;;;4.18;2.80;;;;;;;12.13;80.78;102056.66;5094995;28;20032;-61
2023/09/25 05:02:50;;;;;;;6.10;3.08;;;;;;;12.15;80.95;102055.81;5095177;28;20104;-60
2023/09/25 05:05:17;;;;;;;4.30;2.63;;;;;;;12.17;81.06;102062.06;5094904;28;20031;-61
2023/09/25 05:07:43;;;;;;;6.70;2.95;;;;;;;12.22;80.51;102067.47;5094614;28;20032;-61
2023/09/25 05:10:10;;;;;;;5.70;2.95;;;;;;;12.21;80.79;102065.69;5094965;28;20046;-62
2023/09/25 05:12:39;;;;;;;4.80;3.08;;;;;;;12.19;80.63;102063.00;5093389;28;20367;-62
2023/09/25 05:15:07;;;;;;;4.78;2.90;;;;;;;12.22;80.70;102070.13;5094502;28;20466;-61
2023/09/25 05:17:37;;;;;;;4.80;2.78;;;;;;;12.20;80.81;102069.19;5094331;28;20028;-60
2023/09/25 05:20:15;;;;;;;4.57;2.88;;;;;;;12.22;80.84;102073.69;5093625;28;20020;-62
2023/09/25 05:22:45;;;;;;;5.28;2.85;;;;;;;12.23;80.29;102067.50;5094355;28;20027;-61
2023/09/25 05:25:12;;;;;;;5.35;2.70;;;;;;;12.25;80.90;102070.22;5093197;28;20101;-61
2023/09/25 05:27:39;;;;;;;7.20;3.10;;;;;;;12.25;80.29;102073.75;5093857;28;20474;-61
2023/09/25 05:30:09;;;;;;;5.88;3.05;;;;;;;12.26;80.56;102077.31;5093341;28;20386;-59
2023/09/25 05:32:39;;;;;;;4.57;2.90;;;;;;;12.24;80.14;102069.28;5093742;28;20042;-60
2023/09/25 05:35:05;;;;;;;5.60;3.17;;;;;;;12.22;80.50;102081.63;5094017;28;20028;-61
2023/09/25 05:37:31;;;;;;;6.75;2.95;;;;;;;12.24;80.75;102073.69;5093956;28;20031;-61
2023/09/25 05:39:56;;;;;;;5.18;2.78;;;;;;;12.24;80.13;102079.00;5094107;28;20024;-60
2023/09/25 05:42:22;;;;;;;5.93;2.80;;;;;;;12.21;80.69;102077.19;5093667;28;20084;-61
2023/09/25 05:44:48;;;;;;;5.38;2.72;;;;;;;12.22;80.61;102075.44;5093998;28;20040;-61
2023/09/25 05:47:13;;;;;;;4.95;2.85;;;;;;;12.27;80.42;102079.97;5093965;28;20032;-61
2023/09/25 05:49:39;;;;;;;7.10;2.97;;;;;;;12.27;80.21;102076.44;5092273;28;20024;-61
2023/09/25 05:52:04;;;;;;;4.30;2.80;;;;;;;12.27;80.12;102081.72;5093629;28;20055;-61
2023/09/25 05:54:31;;;;;;;5.30;3.05;;;;;;;12.28;80.31;102080.88;5093572;28;20079;-61
2023/09/25 05:56:56;;;;;;;4.95;2.90;;;;;;;12.34;79.87;102078.38;5093673;28;20020;-60
2023/09/25 05:59:21;;;;;;;4.32;2.90;;;;;;;12.36;79.75;102073.09;5093203;28;20024;-62
2023/09/25 06:01:47;;;;;;;5.03;2.92;;;;;;;12.35;79.83;102076.63;5093417;28;20029;-61
2023/09/25 06:04:12;;;;;;;6.95;2.83;;;;;;;12.33;79.98;102087.16;5093516;28;20032;-62
2023/09/25 06:06:38;;;;;;;5.13;3.03;;;;;;;12.36;80.24;102089.00;5093303;28;20481;-61
2023/09/25 06:09:08;;;;;;;4.72;2.80;;;;;;;12.46;80.22;102093.66;5093454;28;20043;-60
2023/09/25 06:11:35;;;;;;;6.72;2.80;;;;;;;12.53;79.59;102082.34;5093215;28;20468;-61
2023/09/25 06:14:01;;;;;;;4.70;2.90;;;;;;;12.59;79.22;102093.09;5093442;28;20032;-61
2023/09/25 06:16:26;;;;;;;5.50;2.75;;;;;;;12.64;79.01;102087.88;5093242;28;20496;-60
2023/09/25 06:18:51;;;;;;;5.43;2.88;;;;;;;12.62;79.01;102092.25;5093124;28;20060;-61
2023/09/25 06:21:17;;;;;;;4.88;2.70;;;;;;;12.63;79.62;102086.97;5093552;28;20081;-62
2023/09/25 06:23:47;;;;;;;5.07;2.88;;;;;;;12.65;79.54;102089.66;5093291;28;20478;-61
2023/09/25 06:26:12;;;;;;;5.35;3.08;;;;;;;12.68;79.05;102085.34;5093060;28;20028;-61
2023/09/25 06:28:38;;;;;;;4.63;2.72;;;;;;;12.77;79.21;102089.94;5093397;28;20024;-61
2023/09/25 06:31:03;;;;;;;7.20;2.78;;;;;;;12.86;78.75;102092.78;5092224;28;20048;-63
2023/09/25 06:33:29;;;;;;;5.88;3.20;;;;;;;12.92;78.66;102092.91;5092454;28;20424;-60
2023/09/25 06:35:55;;;;;;;5.00;2.92;;;;;;;12.97;78.37;102088.59;5092896;28;20024;-61
2023/09/25 06:38:21;;;;;;;5.70;2.50;;;;;;;12.99;78.02;102085.97;5092814;28;20017;-60
2023/09/25 06:40:46;;;;;;;9.88;5.20;;;;;;;13.12;78.19;102095.09;5091443;28;20024;-60
2023/09/25 06:43:13;;;;;;;5.13;2.92;;;;;;;13.30;77.62;102095.47;5092931;28;20122;-60
2023/09/25 06:45:39;;;;;;;7.25;2.90;;;;;;;13.40;76.92;102088.59;5092827;28;20062;-61
2023/09/25 06:48:05;;;;;;;8.05;2.92;;;;;;;13.46;77.56;102096.69;5092885;28;20028;-61
2023/09/25 06:50:30;;;;;;;3.95;3.00;;;;;;;13.49;76.92;102092.34;5092832;28;20036;-61
2023/09/25 06:52:56;;;;;;;5.40;3.08;;;;;;;13.54;77.07;102095.06;5092938;28;20032;-61
2023/09/25 06:55:22;;;;;;;5.82;3.22;;;;;;;13.52;77.24;102078.19;5092864;28;20386;-62
2023/09/25 06:57:47;;;;;;;6.65;3.20;;;;;;;13.69;76.78;102090.03;5092512;28;20028;-62
2023/09/25 07:00:13;;;;;;;4.78;2.97;;;;;;;13.84;75.83;102089.41;5092517;28;20478;-62
2023/09/25 07:02:39;;;;;;;5.60;2.95;;;;;;;13.96;75.35;102092.28;5091538;28;20485;-60
2023/09/25 07:05:05;;;;;;;7.47;3.00;;;;;;;14.13;74.27;102087.25;5092467;28;20107;-61
2023/09/25 07:07:30;;;;;;;5.55;3.05;;;;;;;14.26;73.87;102082.97;5092572;28;20214;-61
2023/09/25 07:09:56;;;;;;;5.05;2.97;;;;;;;14.41;73.95;102095.63;5092782;28;20469;-60
2023/09/25 07:12:22;;;;;;;5.85;3.15;;;;;;;14.59;74.17;102095.94;5092450;28;20024;-61
2023/09/25 07:14:58;;;;;;;5.93;2.78;;;;;;;14.89;73.23;102086.56;5092522;28;20500;-60
2023/09/25 07:17:24;;;;;;;4.45;2.92;;;;;;;15.19;71.69;102094.03;5092439;28;20039;-60
2023/09/25 07:19:53;;;;;;;4.85;3.15;;;;;;;15.38;70.66;102098.72;5092552;28;20024;-61
2023/09/25 07:22:20;;;;;;;9.32;3.10;;;;;;;15.67;71.01;102100.81;5092521;28;20024;-62
2023/09/25 07:24:45;;;;;;;6.60;3.03;;;;;;;15.76;68.68;102101.81;5092619;28;20145;-62
2023/09/25 07:27:11;;;;;;;5.90;3.08;;;;;;;15.89;68.81;102092.16;5092882;28;20066;-61
2023/09/25 07:29:37;;;;;;;5.28;3.00;;;;;;;16.08;67.33;102097.63;5090709;28;20047;-62
2023/09/25 07:32:03;;;;;;;6.88;3.33;;;;;;;16.25;67.26;102091.53;5092731;28;20465;-61
2023/09/25 07:34:31;;;;;;;5.05;3.03;;;;;;;16.42;66.72;102085.44;5091117;28;20056;-62
2023/09/25 07:36:57;;;;;;;4.63;2.70;;;;;;;16.59;66.00;102091.78;5092337;28;20527;-62
2023/09/25 07:39:23;;;;;;;7.65;3.20;;;;;;;16.59;64.46;102093.56;5092110;28;20466;-60
2023/09/25 07:41:50;;;;;;;5.95;2.97;;;;;;;16.76;65.76;102090.13;5092361;28;20028;-61
2023/09/25 07:44:16;;;;;;;5.95;2.70;;;;;;;16.92;64.50;102085.75;5095064;28;20390;-61
2023/09/25 07:46:43;;;;;;;5.63;2.90;;;;;;;17.13;63.62;102089.38;5096251;28;20035;-62
2023/09/25 07:49:09;;;;;;;5.70;2.85;;;;;;;17.16;60.98;102092.94;5096014;28;20047;-61
2023/09/25 07:51:35;;;;;;;6.30;3.20;;;;;;;17.09;62.43;102087.59;5094549;28;20358;-60
2023/09/25 07:54:02;;;;;;;6.13;2.90;;;;;;;17.25;63.13;102076.94;5095942;28;20031;-61
2023/09/25 07:56:28;;;;;;;5.25;2.78;;;;;;;17.44;63.63;102080.56;5095713;28;20482;-61
2023/09/25 07:58:57;;;;;;;7.50;2.80;;;;;;;17.61;63.15;102087.75;5095773;28;20051;-62
2023/09/25 08:01:29;;;;;;;5.78;2.92;;;;;;;17.68;61.41;102087.72;5095448;28;20081;-62
2023/09/25 08:03:54;;;;;;;5.83;2.70;;;;;;;17.69;62.93;102092.22;5095888;28;20101;-61
2023/09/25 08:06:24;;;;;;;6.70;3.28;;;;;;;17.81;61.94;102095.78;5095877;28;20467;-63
2023/09/25 08:08:50;;;;;;;7.78;2.88;;;;;;;17.92;61.34;102094.91;5094477;28;20055;-60
2023/09/25 08:11:17;;;;;;;6.63;2.85;;;;;;;18.13;60.82;102102.06;5095603;28;20028;-61
2023/09/25 08:13:42;;;;;;;5.20;2.92;;;;;;;18.31;61.09;102102.94;5078248;28;20037;-60
2023/09/25 08:16:08;;;;;;;8.10;2.78;;;;;;;18.18;59.55;102099.38;5075195;28;20440;-62
2023/09/25 08:18:34;;;;;;;4.55;2.70;;;;;;;18.16;61.43;102094.03;5074940;28;20075;-61
2023/09/25 08:21:00;;;;;;;8.30;2.88;;;;;;;18.21;59.92;102100.28;5075154;28;20093;-61
2023/09/25 08:23:26;;;;;;;5.45;2.80;;;;;;;18.32;59.10;102094.00;5075179;28;20116;-61
2023/09/25 08:25:52;;;;;;;4.15;2.88;;;;;;;18.37;59.61;102100.25;5075234;28;20025;-60
2023/09/25 08:28:18;;;;;;;4.03;2.70;;;;;;;18.25;57.23;102094.03;5075082;28;20033;-62
2023/09/25 08:30:44;;;;;;;5.35;2.83;;;;;;;18.30;58.28;102093.13;5074786;28;20048;-61
2023/09/25 08:33:10;;;;;;;6.50;3.00;;;;;;;18.29;58.61;102086.91;5075238;28;20036;-61
2023/09/25 08:35:36;;;;;;;5.88;2.72;;;;;;;18.38;58.01;102088.66;5074976;28;20386;-60
2023/09/25 08:38:01;;;;;;;6.65;2.70;;;;;;;18.52;58.46;102081.50;5075165;28;20179;-62
2023/09/25 08:40:31;;;;;;;6.57;2.90;;;;;;;18.67;57.23;102080.53;5075062;28;20522;-62
2023/09/25 08:42:57;;;;;;;5.00;2.67;;;;;;;18.87;57.78;102076.06;5075418;28;20024;-60
2023/09/25 08:45:23;;;;;;;4.93;2.63;;;;;;;19.00;56.53;102076.88;5074857;28;20113;-60
2023/09/25 08:47:48;;;;;;;5.88;2.80;;;;;;;19.01;56.30;102074.22;5074629;28;20020;-60
2023/09/25 08:50:14;;;;;;;4.05;2.50;;;;;;;19.12;58.32;102067.91;5074628;28;20567;-60
2023/09/25 08:52:39;;;;;;;7.07;2.75;;;;;;;19.20;56.32;102069.66;5074588;28;20478;-61
2023/09/25 08:55:08;;;;;;;7.72;2.97;;;;;;;19.33;55.52;102070.47;5089469;28;20060;-61
2023/09/25 08:57:35;;;;;;;4.70;2.80;;;;;;;19.56;55.48;102067.63;5094825;28;20028;-61
2023/09/25 09:00:14;;;;;;;3.85;2.53;;;;;;;19.70;53.56;102068.47;5094595;28;20035;-60
2023/09/25 09:02:43;;;;;;;4.20;2.50;;;;;;;19.86;55.50;102071.91;5094531;28;20466;-60
2023/09/25 09:05:16;;;;;;;5.43;2.58;;;;;;;20.13;53.61;102064.56;5094474;28;20394;-61
2023/09/25 09:08:05;;;;;;;5.05;2.60;;;;;;;20.49;53.64;102068.69;5094450;28;20023;-62
2023/09/25 09:10:35;;;;;;;5.43;2.65;;;;;;;20.60;52.80;102071.22;5094274;28;20035;-60
2023/09/25 09:13:04;;;;;;;4.82;2.70;;;;;;;20.64;51.81;102072.97;5094254;28;20054;-62
2023/09/25 09:15:30;;;;;;;7.35;2.92;;;;;;;20.72;52.33;102060.34;5093358;28;20042;-61
2023/09/25 09:17:56;;;;;;;4.97;2.63;;;;;;;20.84;52.84;102062.88;5094063;28;20024;-61
2023/09/25 09:20:36;;;;;;;5.25;2.40;;;;;;;20.81;50.40;102062.91;5094407;28;20070;-61
2023/09/25 09:23:02;;;;;;;7.47;2.60;;;;;;;20.48;50.70;102062.41;5094340;28;20036;-60
2023/09/25 09:25:29;;;;;;;5.55;2.78;;;;;;;20.45;52.37;102053.47;5094334;28;20099;-62
2023/09/25 09:27:58;;;;;;;5.18;2.90;;;;;;;20.62;53.89;102056.88;5093918;28;20038;-60
2023/09/25 09:30:24;;;;;;;5.63;2.60;;;;;;;20.63;51.44;102064.03;5093724;28;20185;-61
2023/09/25 09:32:50;;;;;;;6.72;2.60;;;;;;;20.56;51.95;102064.13;5094092;28;20036;-61
2023/09/25 09:35:22;;;;;;;4.53;2.53;;;;;;;20.37;51.92;102066.09;5094137;28;20028;-61
2023/09/25 09:37:49;;;;;;;7.45;2.80;;;;;;;20.26;52.52;102067.09;5093735;28;20533;-61
2023/09/25 09:40:17;;;;;;;5.63;2.60;;;;;;;20.10;52.92;102076.19;5093814;28;20070;-61
2023/09/25 09:42:43;;;;;;;4.63;2.60;;;;;;;20.02;53.34;102062.84;5093750;28;20478;-61
2023/09/25 09:45:09;;;;;;;7.40;3.05;;;;;;;20.13;52.40;102077.97;5093830;28;20043;-63
2023/09/25 09:47:43;;;;;;;5.10;2.70;;;;;;;20.15;52.06;102062.72;5093646;28;20028;-62
2023/09/25 09:50:10;;;;;;;3.92;2.38;;;;;;;20.20;53.28;102067.13;5093588;28;20024;-61
2023/09/25 09:52:38;;;;;;;5.55;2.40;;;;;;;20.34;52.13;102077.75;5093953;28;20386;-61
2023/09/25 09:55:06;;;;;;;5.55;2.53;;;;;;;20.54;53.16;102074.88;5093473;28;20569;-61
2023/09/25 09:57:32;;;;;;;5.93;2.70;;;;;;;20.64;52.20;102078.34;5093501;28;20029;-60
2023/09/25 09:59:57;;;;;;;7.18;2.60;;;;;;;20.71;53.27;102082.75;5093212;28;20464;-60
2023/09/25 10:02:26;;;;;;;5.13;2.50;;;;;;;20.72;52.60;102085.41;5093533;28;20069;-61
2023/09/25 10:04:52;;;;;;;5.95;2.80;;;;;;;20.87;52.52;102083.47;5093262;28;20029;-62
2023/09/25 10:07:17;;;;;;;5.20;2.67;;;;;;;20.97;52.29;102086.00;5093333;28;20020;-61
2023/09/25 10:10:04;;;;;;;5.65;2.75;;;;;;;21.24;53.33;102082.09;5093139;28;20375;-61
2023/09/25 10:12:36;;;;;;;6.75;2.70;;;;;;;21.43;51.62;102079.16;5093724;28;20370;-62
2023/09/25 10:15:04;;;;;;;6.57;2.60;;;;;;;21.47;51.24;102080.91;5093167;28;20028;-61
2023/09/25 10:17:39;;;;;;;5.55;2.70;;;;;;;21.66;51.81;102073.41;5093354;28;20020;-61
2023/09/25 10:20:05;;;;;;;5.60;2.60;;;;;;;21.72;50.81;102071.53;5093078;28;20039;-62
2023/09/25 10:22:30;;;;;;;4.70;2.53;;;;;;;21.73;51.33;102058.97;5092868;28;20021;-62
2023/09/25 10:25:11;;;;;;;4.90;2.65;;;;;;;21.88;51.32;102066.78;5093029;28;20030;-60
2023/09/25 10:27:37;;;;;;;4.68;2.70;;;;;;;21.63;49.99;102060.94;5092965;28;20510;-62
2023/09/25 10:30:15;;;;;;;4.22;2.70;;;;;;;21.71;51.41;102069.78;5092715;28;20040;-61
2023/09/25 10:32:49;;;;;;;5.57;2.70;;;;;;;21.66;49.92;102062.66;5092921;28;20024;-60
2023/09/25 10:35:40;;;;;;;6.03;2.42;;;;;;;21.65;51.12;102061.78;5093265;28;20503;-62
2023/09/25 10:38:21;;;;;;;5.90;2.50;;;;;;;21.76;51.48;102072.38;5092664;28;20012;-62
2023/09/25 10:40:51;;;;;;;4.85;2.53;;;;;;;21.74;51.29;102069.69;5093078;28;20122;-61
2023/09/25 10:43:21;;;;;;;4.95;2.60;;;;;;;21.84;51.06;102074.91;5092832;28;20119;-61
2023/09/25 10:45:47;;;;;;;6.85;2.50;;;;;;;21.91;50.93;102074.81;5095889;28;20051;-61
2023/09/25 10:48:13;;;;;;;5.35;2.33;;;;;;;21.95;49.87;102062.19;5092683;28;20024;-61
2023/09/25 10:50:40;;;;;;;5.68;2.30;;;;;;;22.09;50.93;102065.53;5092620;28;20028;-63
2023/09/25 10:53:07;;;;;;;6.22;2.47;;;;;;;22.26;50.44;102059.88;5092716;28;20359;-62
2023/09/25 10:55:33;;;;;;;5.55;2.60;;;;;;;22.32;50.36;102059.78;5093027;28;20044;-61
2023/09/25 10:58:00;;;;;;;5.70;2.55;;;;;;;22.36;48.98;102048.03;5107656;28;20488;-62
2023/09/25 11:00:27;;;;;;;6.60;2.45;;;;;;;22.30;48.21;102061.59;5104704;28;20048;-61
2023/09/25 11:02:52;;;;;;;3.90;2.30;;;;;;;22.33;48.45;102050.78;5092572;28;20100;-61
2023/09/25 11:05:18;;;;;;;3.78;2.17;;;;;;;22.50;48.73;102050.44;5092302;28;20097;-60
2023/09/25 11:07:44;;;;;;;4.75;2.40;;;;;;;22.70;48.38;102055.44;5092208;28;20028;-62
2023/09/25 11:10:16;;;;;;;4.65;2.40;;;;;;;22.75;48.21;102059.81;5092581;28;20547;-60
2023/09/25 11:12:42;;;;;;;5.32;2.40;;;;;;;22.75;49.14;102057.13;5091326;28;20145;-61
2023/09/25 11:15:11;;;;;;;4.22;2.47;;;;;;;23.01;48.47;102065.63;5092370;28;20035;-61
2023/09/25 11:17:40;;;;;;;4.82;2.50;;;;;;;23.26;46.64;102076.75;5091434;28;20442;-62
2023/09/25 11:20:11;;;;;;;3.95;2.30;;;;;;;23.43;46.98;102067.34;5096373;28;20462;-62
2023/09/25 11:22:40;;;;;;;3.67;2.30;;;;;;;23.78;46.07;102071.03;5096548;28;20490;-62
2023/09/25 11:25:12;;;;;;;4.15;2.50;;;;;;;23.87;46.38;102072.63;5096752;28;20073;-61